KCDW/CDW METAR and TAF weather

Enter ICAO airport designator
Station Type Date Time Source
KCDW METAR 2021/05/12 00:53 UTC NOAA

KCDW 120053Z 29005KT 10SM SCT100 14/01 A3005 RMK AO2 SLP181 T01390006


Station Type Date Time Source
KCDW Decoded METAR 2021/05/12 00:53 UTC NOAA

CALDWELL ESSEX COUNTY AIRPORT , NJ, United States (KCDW) 40-53N 074-17W 64M
May 11, 2021 - 08:53 PM EDT / 2021.05.12 0053 UTC
Wind: from the WNW (290 degrees) at 6 MPH (5 KT):0
Visibility: 10 mile(s):0
Sky conditions: partly cloudy
Temperature: 57.0 F (13.9 C)
Dew Point: 33.1 F (0.6 C)
Relative Humidity: 40%
Pressure (altimeter): 30.05 in. Hg (1017 hPa)
ob: KCDW 120053Z 29005KT 10SM SCT100 14/01 A3005 RMK AO2 SLP181 T01390006
cycle: 1

Station Type Date Time Source
KCDW TAF UTC NOAA

Error!

Example: see airport list